Terminal Aerodrome Forecast
Issued by NWS

Home | Current Version | Previous Version | Text Only | Print | Product List | Glossary On
Versions: 1 2 3 4 5 6 7 8 9 10 11 12 13 14 15 16 17 18 19 20 21 22 23 24 25 26 27 28 29 30 31 32 33 34 35 36 37 38 39 40
752
FTAK31 PANC 291601 AAC
TAFAIL
TAF AMD
PAIL 291601Z 2916/3012 30006KT P6SM VCFG SCT005
      TEMPO 2916/2918 3SM BR
     FM291900 09006KT P6SM FEW020 SCT050
     FM292200 16006KT P6SM SKC
     FM300800 VRB02KT P6SM VCFG FEW005 SCT008
     FM301000 VRB02KT 1SM BR BKN005=

USA.gov is the U.S. government's official web portal to all federal, state and local government web resources and services.